sensor_id;sensor_type;location;lat;lon;timestamp;temperature;humidity
27759;DHT22;15148;48.972;12.794;2023-02-04T00:02:09;3.20;99.90
27759;DHT22;15148;48.972;12.794;2023-02-04T00:07:11;3.20;99.90
27759;DHT22;15148;48.972;12.794;2023-02-04T00:12:13;3.20;99.90
27759;DHT22;15148;48.972;12.794;2023-02-04T00:17:15;3.20;99.90
27759;DHT22;15148;48.972;12.794;2023-02-04T00:22:17;3.20;99.90
27759;DHT22;15148;48.972;12.794;2023-02-04T00:27:19;3.20;99.90
27759;DHT22;15148;48.972;12.794;2023-02-04T00:32:20;3.10;99.90
27759;DHT22;15148;48.972;12.794;2023-02-04T00:37:22;3.20;99.90
27759;DHT22;15148;48.972;12.794;2023-02-04T00:42:24;3.20;99.90
27759;DHT22;15148;48.972;12.794;2023-02-04T00:47:26;3.20;99.90
27759;DHT22;15148;48.972;12.794;2023-02-04T00:52:30;3.10;99.90
27759;DHT22;15148;48.972;12.794;2023-02-04T00:57:32;3.10;99.90
27759;DHT22;15148;48.972;12.794;2023-02-04T01:02:34;3.00;99.90
27759;DHT22;15148;48.972;12.794;2023-02-04T01:07:36;3.00;99.90
27759;DHT22;15148;48.972;12.794;2023-02-04T01:12:38;2.90;99.90
27759;DHT22;15148;48.972;12.794;2023-02-04T01:17:40;2.90;99.90
27759;DHT22;15148;48.972;12.794;2023-02-04T01:22:42;2.80;99.90
27759;DHT22;15148;48.972;12.794;2023-02-04T01:27:44;2.90;99.90
27759;DHT22;15148;48.972;12.794;2023-02-04T01:32:46;3.00;99.90
27759;DHT22;15148;48.972;12.794;2023-02-04T01:37:48;2.90;99.90
27759;DHT22;15148;48.972;12.794;2023-02-04T01:42:50;2.90;99.90
27759;DHT22;15148;48.972;12.794;2023-02-04T01:47:53;2.80;99.90
27759;DHT22;15148;48.972;12.794;2023-02-04T01:52:54;2.70;99.90
27759;DHT22;15148;48.972;12.794;2023-02-04T01:57:57;2.80;99.90
27759;DHT22;15148;48.972;12.794;2023-02-04T02:03:00;2.70;99.90
27759;DHT22;15148;48.972;12.794;2023-02-04T02:08:05;2.70;99.90
27759;DHT22;15148;48.972;12.794;2023-02-04T02:13:09;2.70;99.90
27759;DHT22;15148;48.972;12.794;2023-02-04T02:18:12;2.70;99.90
27759;DHT22;15148;48.972;12.794;2023-02-04T02:28:25;2.70;99.90
27759;DHT22;15148;48.972;12.794;2023-02-04T02:33:27;2.70;99.90
27759;DHT22;15148;48.972;12.794;2023-02-04T02:38:30;2.70;99.90
27759;DHT22;15148;48.972;12.794;2023-02-04T02:43:34;2.70;99.90
27759;DHT22;15148;48.972;12.794;2023-02-04T02:48:38;2.60;99.90
27759;DHT22;15148;48.972;12.794;2023-02-04T02:53:40;2.60;99.90
27759;DHT22;15148;48.972;12.794;2023-02-04T02:58:42;2.60;99.90
27759;DHT22;15148;48.972;12.794;2023-02-04T03:03:48;2.80;99.90
27759;DHT22;15148;48.972;12.794;2023-02-04T03:08:54;2.80;99.90
27759;DHT22;15148;48.972;12.794;2023-02-04T03:13:59;2.80;99.90
27759;DHT22;15148;48.972;12.794;2023-02-04T03:19:05;2.80;99.90
27759;DHT22;15148;48.972;12.794;2023-02-04T03:24:07;2.80;99.90
27759;DHT22;15148;48.972;12.794;2023-02-04T03:29:11;2.80;99.90
27759;DHT22;15148;48.972;12.794;2023-02-04T03:34:13;2.80;99.90
27759;DHT22;15148;48.972;12.794;2023-02-04T03:39:15;2.90;99.90
27759;DHT22;15148;48.972;12.794;2023-02-04T03:44:17;2.90;99.90
27759;DHT22;15148;48.972;12.794;2023-02-04T03:49:20;2.80;99.90
27759;DHT22;15148;48.972;12.794;2023-02-04T03:54:22;2.90;99.90
27759;DHT22;15148;48.972;12.794;2023-02-04T03:59:24;2.90;99.90
27759;DHT22;15148;48.972;12.794;2023-02-04T04:04:26;2.80;99.90
27759;DHT22;15148;48.972;12.794;2023-02-04T04:09:27;2.80;99.90
27759;DHT22;15148;48.972;12.794;2023-02-04T04:14:30;2.80;99.90
27759;DHT22;15148;48.972;12.794;2023-02-04T04:19:32;2.70;99.90
27759;DHT22;15148;48.972;12.794;2023-02-04T04:24:34;2.70;99.90
27759;DHT22;15148;48.972;12.794;2023-02-04T04:29:35;2.60;99.90
27759;DHT22;15148;48.972;12.794;2023-02-04T04:34:37;2.50;99.90
27759;DHT22;15148;48.972;12.794;2023-02-04T04:39:39;2.40;99.90
27759;DHT22;15148;48.972;12.794;2023-02-04T04:44:41;2.50;99.90
27759;DHT22;15148;48.972;12.794;2023-02-04T04:49:43;2.60;99.90
27759;DHT22;15148;48.972;12.794;2023-02-04T04:54:45;2.70;99.90
27759;DHT22;15148;48.972;12.794;2023-02-04T04:59:47;2.60;99.90
27759;DHT22;15148;48.972;12.794;2023-02-04T05:04:49;2.50;99.90
27759;DHT22;15148;48.972;12.794;2023-02-04T05:09:51;2.50;99.90
27759;DHT22;15148;48.972;12.794;2023-02-04T05:14:52;2.50;99.90
27759;DHT22;15148;48.972;12.794;2023-02-04T05:19:54;2.40;99.90
27759;DHT22;15148;48.972;12.794;2023-02-04T05:24:56;2.40;99.90
27759;DHT22;15148;48.972;12.794;2023-02-04T05:29:58;2.30;99.90
27759;DHT22;15148;48.972;12.794;2023-02-04T05:35:00;2.30;99.90
27759;DHT22;15148;48.972;12.794;2023-02-04T05:40:02;2.30;99.90
27759;DHT22;15148;48.972;12.794;2023-02-04T05:45:04;2.30;99.90
27759;DHT22;15148;48.972;12.794;2023-02-04T05:50:06;2.10;99.90
27759;DHT22;15148;48.972;12.794;2023-02-04T05:55:10;2.10;99.90
27759;DHT22;15148;48.972;12.794;2023-02-04T06:00:13;2.10;99.90
27759;DHT22;15148;48.972;12.794;2023-02-04T06:05:14;2.10;99.90
27759;DHT22;15148;48.972;12.794;2023-02-04T06:10:17;2.00;99.90
27759;DHT22;15148;48.972;12.794;2023-02-04T06:15:19;1.90;99.90
27759;DHT22;15148;48.972;12.794;2023-02-04T06:20:21;1.90;99.90
27759;DHT22;15148;48.972;12.794;2023-02-04T06:25:23;1.80;99.90
27759;DHT22;15148;48.972;12.794;2023-02-04T06:30:24;1.80;99.90
27759;DHT22;15148;48.972;12.794;2023-02-04T06:35:26;1.80;99.90
27759;DHT22;15148;48.972;12.794;2023-02-04T06:40:28;1.80;99.90
27759;DHT22;15148;48.972;12.794;2023-02-04T06:45:30;1.80;99.90
27759;DHT22;15148;48.972;12.794;2023-02-04T06:50:32;1.70;99.90
27759;DHT22;15148;48.972;12.794;2023-02-04T06:55:34;1.60;99.90
27759;DHT22;15148;48.972;12.794;2023-02-04T07:00:36;1.50;99.90
27759;DHT22;15148;48.972;12.794;2023-02-04T07:05:38;1.50;99.90
27759;DHT22;15148;48.972;12.794;2023-02-04T07:10:40;1.60;99.90
27759;DHT22;15148;48.972;12.794;2023-02-04T07:15:42;1.50;99.90
27759;DHT22;15148;48.972;12.794;2023-02-04T07:20:44;1.50;99.90
27759;DHT22;15148;48.972;12.794;2023-02-04T07:25:46;1.50;99.90
27759;DHT22;15148;48.972;12.794;2023-02-04T07:30:48;1.40;99.90
27759;DHT22;15148;48.972;12.794;2023-02-04T07:35:49;1.40;99.90
27759;DHT22;15148;48.972;12.794;2023-02-04T07:40:51;1.40;99.90
27759;DHT22;15148;48.972;12.794;2023-02-04T07:45:53;1.30;99.90
27759;DHT22;15148;48.972;12.794;2023-02-04T07:50:55;1.20;99.90
27759;DHT22;15148;48.972;12.794;2023-02-04T07:55:57;1.20;99.90
27759;DHT22;15148;48.972;12.794;2023-02-04T08:00:59;1.40;99.90
27759;DHT22;15148;48.972;12.794;2023-02-04T08:06:02;1.70;99.90
27759;DHT22;15148;48.972;12.794;2023-02-04T08:11:04;2.10;99.90
27759;DHT22;15148;48.972;12.794;2023-02-04T08:16:06;2.30;99.90
27759;DHT22;15148;48.972;12.794;2023-02-04T08:21:08;2.50;99.90
27759;DHT22;15148;48.972;12.794;2023-02-04T08:26:10;2.60;99.90
27759;DHT22;15148;48.972;12.794;2023-02-04T08:31:12;2.80;99.90
27759;DHT22;15148;48.972;12.794;2023-02-04T08:36:14;3.00;99.90
27759;DHT22;15148;48.972;12.794;2023-02-04T08:41:16;3.20;99.90
27759;DHT22;15148;48.972;12.794;2023-02-04T08:46:18;3.10;99.90
27759;DHT22;15148;48.972;12.794;2023-02-04T08:51:20;3.10;99.90
27759;DHT22;15148;48.972;12.794;2023-02-04T08:56:21;3.00;99.90
27759;DHT22;15148;48.972;12.794;2023-02-04T09:01:23;2.80;99.90
27759;DHT22;15148;48.972;12.794;2023-02-04T09:06:25;2.70;99.90
27759;DHT22;15148;48.972;12.794;2023-02-04T09:11:27;2.60;99.90
27759;DHT22;15148;48.972;12.794;2023-02-04T09:16:29;2.50;99.90
27759;DHT22;15148;48.972;12.794;2023-02-04T09:21:31;2.50;99.90
27759;DHT22;15148;48.972;12.794;2023-02-04T09:26:32;2.50;99.90
27759;DHT22;15148;48.972;12.794;2023-02-04T09:31:34;2.50;99.90
27759;DHT22;15148;48.972;12.794;2023-02-04T09:36:36;2.50;99.90
27759;DHT22;15148;48.972;12.794;2023-02-04T09:41:41;2.80;99.90
27759;DHT22;15148;48.972;12.794;2023-02-04T09:46:49;2.80;99.90
27759;DHT22;15148;48.972;12.794;2023-02-04T09:51:55;2.80;99.90
27759;DHT22;15148;48.972;12.794;2023-02-04T09:56:57;2.70;99.90
27759;DHT22;15148;48.972;12.794;2023-02-04T10:02:02;2.80;99.90
27759;DHT22;15148;48.972;12.794;2023-02-04T10:07:11;2.90;99.90
27759;DHT22;15148;48.972;12.794;2023-02-04T10:12:13;3.00;99.90
27759;DHT22;15148;48.972;12.794;2023-02-04T10:17:19;3.20;99.90
27759;DHT22;15148;48.972;12.794;2023-02-04T10:22:22;3.40;99.90
27759;DHT22;15148;48.972;12.794;2023-02-04T10:27:24;3.50;99.90
27759;DHT22;15148;48.972;12.794;2023-02-04T10:32:31;3.40;99.90
27759;DHT22;15148;48.972;12.794;2023-02-04T10:37:33;3.20;99.90
27759;DHT22;15148;48.972;12.794;2023-02-04T10:42:35;3.10;99.90
27759;DHT22;15148;48.972;12.794;2023-02-04T10:47:37;3.00;99.90
27759;DHT22;15148;48.972;12.794;2023-02-04T10:52:41;2.90;99.90
27759;DHT22;15148;48.972;12.794;2023-02-04T10:57:46;2.90;99.90
27759;DHT22;15148;48.972;12.794;2023-02-04T11:03:05;3.10;99.90
27759;DHT22;15148;48.972;12.794;2023-02-04T11:08:23;3.10;99.90
27759;DHT22;15148;48.972;12.794;2023-02-04T11:13:38;3.20;99.90
27759;DHT22;15148;48.972;12.794;2023-02-04T11:23:48;3.20;99.90
27759;DHT22;15148;48.972;12.794;2023-02-04T11:39:15;3.20;99.90
27759;DHT22;15148;48.972;12.794;2023-02-04T11:44:17;3.40;99.90
27759;DHT22;15148;48.972;12.794;2023-02-04T11:49:21;3.30;99.90
27759;DHT22;15148;48.972;12.794;2023-02-04T11:54:24;3.50;99.90
27759;DHT22;15148;48.972;12.794;2023-02-04T11:59:26;3.60;99.90
27759;DHT22;15148;48.972;12.794;2023-02-04T12:04:28;3.70;99.90
27759;DHT22;15148;48.972;12.794;2023-02-04T12:09:31;3.50;99.90
27759;DHT22;15148;48.972;12.794;2023-02-04T12:14:35;3.40;99.90
27759;DHT22;15148;48.972;12.794;2023-02-04T12:19:37;3.30;99.90
27759;DHT22;15148;48.972;12.794;2023-02-04T12:24:39;3.10;99.90
27759;DHT22;15148;48.972;12.794;2023-02-04T12:29:41;2.90;99.90
27759;DHT22;15148;48.972;12.794;2023-02-04T12:34:43;2.80;99.90
27759;DHT22;15148;48.972;12.794;2023-02-04T12:39:44;2.90;99.90
27759;DHT22;15148;48.972;12.794;2023-02-04T12:44:46;3.30;99.90
27759;DHT22;15148;48.972;12.794;2023-02-04T12:49:48;3.60;99.90
27759;DHT22;15148;48.972;12.794;2023-02-04T12:54:50;3.90;99.90
27759;DHT22;15148;48.972;12.794;2023-02-04T12:59:52;3.80;99.90
27759;DHT22;15148;48.972;12.794;2023-02-04T13:04:53;3.60;99.90
27759;DHT22;15148;48.972;12.794;2023-02-04T13:09:55;3.40;99.90
27759;DHT22;15148;48.972;12.794;2023-02-04T13:14:58;3.10;99.90
27759;DHT22;15148;48.972;12.794;2023-02-04T13:20:00;3.00;99.90
27759;DHT22;15148;48.972;12.794;2023-02-04T13:25:02;3.00;99.90
27759;DHT22;15148;48.972;12.794;2023-02-04T13:30:06;3.30;99.90
27759;DHT22;15148;48.972;12.794;2023-02-04T13:35:08;3.30;99.90
27759;DHT22;15148;48.972;12.794;2023-02-04T13:40:10;3.20;99.90
27759;DHT22;15148;48.972;12.794;2023-02-04T13:45:12;3.30;99.90
27759;DHT22;15148;48.972;12.794;2023-02-04T13:50:18;3.40;99.90
27759;DHT22;15148;48.972;12.794;2023-02-04T13:55:20;3.50;99.90
27759;DHT22;15148;48.972;12.794;2023-02-04T14:00:22;3.50;99.90
27759;DHT22;15148;48.972;12.794;2023-02-04T14:05:23;3.50;99.90
27759;DHT22;15148;48.972;12.794;2023-02-04T14:10:25;3.40;99.90
27759;DHT22;15148;48.972;12.794;2023-02-04T14:15:27;3.20;99.90
27759;DHT22;15148;48.972;12.794;2023-02-04T14:20:30;3.10;99.90
27759;DHT22;15148;48.972;12.794;2023-02-04T14:25:32;3.00;99.90
27759;DHT22;15148;48.972;12.794;2023-02-04T14:30:34;2.90;99.90
27759;DHT22;15148;48.972;12.794;2023-02-04T14:35:37;2.80;99.90
27759;DHT22;15148;48.972;12.794;2023-02-04T14:40:39;2.80;99.90
27759;DHT22;15148;48.972;12.794;2023-02-04T14:45:41;2.70;99.90
27759;DHT22;15148;48.972;12.794;2023-02-04T14:50:43;2.70;99.90
27759;DHT22;15148;48.972;12.794;2023-02-04T14:55:45;2.60;99.90
27759;DHT22;15148;48.972;12.794;2023-02-04T15:00:47;2.50;99.90
27759;DHT22;15148;48.972;12.794;2023-02-04T15:05:49;2.40;99.90
27759;DHT22;15148;48.972;12.794;2023-02-04T15:10:51;2.40;99.90
27759;DHT22;15148;48.972;12.794;2023-02-04T15:15:53;2.30;99.90
27759;DHT22;15148;48.972;12.794;2023-02-04T15:20:55;2.20;99.90
27759;DHT22;15148;48.972;12.794;2023-02-04T15:25:56;2.00;99.90
27759;DHT22;15148;48.972;12.794;2023-02-04T15:30:58;1.90;99.90
27759;DHT22;15148;48.972;12.794;2023-02-04T15:36:00;1.70;99.90
27759;DHT22;15148;48.972;12.794;2023-02-04T15:41:02;1.60;99.90
27759;DHT22;15148;48.972;12.794;2023-02-04T15:46:05;1.40;99.90
27759;DHT22;15148;48.972;12.794;2023-02-04T15:51:07;1.30;99.90
27759;DHT22;15148;48.972;12.794;2023-02-04T15:56:09;1.20;99.90
27759;DHT22;15148;48.972;12.794;2023-02-04T16:01:11;1.00;99.90
27759;DHT22;15148;48.972;12.794;2023-02-04T16:06:15;0.90;99.90
27759;DHT22;15148;48.972;12.794;2023-02-04T16:11:17;0.70;99.90
27759;DHT22;15148;48.972;12.794;2023-02-04T16:16:19;0.60;99.90
27759;DHT22;15148;48.972;12.794;2023-02-04T16:21:21;0.50;99.90
27759;DHT22;15148;48.972;12.794;2023-02-04T16:26:22;0.50;99.90
27759;DHT22;15148;48.972;12.794;2023-02-04T16:31:24;0.40;99.90
27759;DHT22;15148;48.972;12.794;2023-02-04T16:36:26;0.20;99.90
27759;DHT22;15148;48.972;12.794;2023-02-04T16:41:28;0.10;99.90
27759;DHT22;15148;48.972;12.794;2023-02-04T16:46:30;-0.10;99.90
27759;DHT22;15148;48.972;12.794;2023-02-04T16:51:34;-0.20;99.90
27759;DHT22;15148;48.972;12.794;2023-02-04T16:56:36;-0.30;99.90
27759;DHT22;15148;48.972;12.794;2023-02-04T17:01:38;-0.40;99.90
27759;DHT22;15148;48.972;12.794;2023-02-04T17:06:40;-0.50;99.90
27759;DHT22;15148;48.972;12.794;2023-02-04T17:11:42;-0.60;99.90
27759;DHT22;15148;48.972;12.794;2023-02-04T17:16:45;-0.60;99.90
27759;DHT22;15148;48.972;12.794;2023-02-04T17:21:47;-0.60;99.90
27759;DHT22;15148;48.972;12.794;2023-02-04T17:26:49;-0.60;99.90
27759;DHT22;15148;48.972;12.794;2023-02-04T17:31:51;-0.70;99.90
27759;DHT22;15148;48.972;12.794;2023-02-04T17:36:54;-0.70;99.90
27759;DHT22;15148;48.972;12.794;2023-02-04T17:41:56;-0.80;99.90
27759;DHT22;15148;48.972;12.794;2023-02-04T17:46:57;-0.90;99.90
27759;DHT22;15148;48.972;12.794;2023-02-04T17:52:00;-1.00;99.90
27759;DHT22;15148;48.972;12.794;2023-02-04T17:57:15;-1.10;99.90
27759;DHT22;15148;48.972;12.794;2023-02-04T18:02:29;-1.10;99.90
27759;DHT22;15148;48.972;12.794;2023-02-04T18:07:32;-1.40;99.90
27759;DHT22;15148;48.972;12.794;2023-02-04T18:12:34;-1.40;99.90
27759;DHT22;15148;48.972;12.794;2023-02-04T18:17:37;-1.40;99.90
27759;DHT22;15148;48.972;12.794;2023-02-04T18:22:39;-1.60;99.90
27759;DHT22;15148;48.972;12.794;2023-02-04T18:27:41;-1.60;99.90
27759;DHT22;15148;48.972;12.794;2023-02-04T18:32:42;-1.50;99.90
27759;DHT22;15148;48.972;12.794;2023-02-04T18:37:46;-1.60;99.90
27759;DHT22;15148;48.972;12.794;2023-02-04T18:42:48;-1.70;99.90
27759;DHT22;15148;48.972;12.794;2023-02-04T18:47:54;-1.70;99.90
27759;DHT22;15148;48.972;12.794;2023-02-04T18:58:35;-1.80;99.90
27759;DHT22;15148;48.972;12.794;2023-02-04T19:03:48;-1.90;99.90
27759;DHT22;15148;48.972;12.794;2023-02-04T19:08:52;-2.00;99.90
27759;DHT22;15148;48.972;12.794;2023-02-04T19:13:57;-2.00;99.90
27759;DHT22;15148;48.972;12.794;2023-02-04T19:18:59;-2.00;99.90
27759;DHT22;15148;48.972;12.794;2023-02-04T19:24:16;-2.00;99.90
27759;DHT22;15148;48.972;12.794;2023-02-04T19:34:37;-2.20;99.90
27759;DHT22;15148;48.972;12.794;2023-02-04T19:39:39;-2.20;99.90
27759;DHT22;15148;48.972;12.794;2023-02-04T19:44:44;-2.20;99.90
27759;DHT22;15148;48.972;12.794;2023-02-04T19:49:47;-2.20;99.90
27759;DHT22;15148;48.972;12.794;2023-02-04T19:54:49;-2.20;99.90
27759;DHT22;15148;48.972;12.794;2023-02-04T19:59:55;-2.20;99.90
27759;DHT22;15148;48.972;12.794;2023-02-04T20:04:57;-2.20;99.90
27759;DHT22;15148;48.972;12.794;2023-02-04T20:15:15;-2.20;99.90
27759;DHT22;15148;48.972;12.794;2023-02-04T20:20:26;-2.10;99.90
27759;DHT22;15148;48.972;12.794;2023-02-04T20:25:37;-2.20;99.90
27759;DHT22;15148;48.972;12.794;2023-02-04T20:30:39;-2.20;99.90
27759;DHT22;15148;48.972;12.794;2023-02-04T20:40:43;-2.10;99.90
27759;DHT22;15148;48.972;12.794;2023-02-04T20:46:01;-2.10;99.90
27759;DHT22;15148;48.972;12.794;2023-02-04T20:51:20;-2.20;99.90
27759;DHT22;15148;48.972;12.794;2023-02-04T20:56:27;-2.20;99.90
27759;DHT22;15148;48.972;12.794;2023-02-04T21:01:34;-2.30;99.90
27759;DHT22;15148;48.972;12.794;2023-02-04T21:06:37;-2.30;99.90
27759;DHT22;15148;48.972;12.794;2023-02-04T21:11:39;-2.40;99.90
27759;DHT22;15148;48.972;12.794;2023-02-04T21:16:41;-2.40;99.90
27759;DHT22;15148;48.972;12.794;2023-02-04T21:21:42;-2.50;99.90
27759;DHT22;15148;48.972;12.794;2023-02-04T21:26:45;-2.70;99.90
27759;DHT22;15148;48.972;12.794;2023-02-04T21:31:47;-2.70;99.90
27759;DHT22;15148;48.972;12.794;2023-02-04T21:36:49;-2.80;99.90
27759;DHT22;15148;48.972;12.794;2023-02-04T21:41:51;-2.80;99.90
27759;DHT22;15148;48.972;12.794;2023-02-04T21:47:10;-2.90;99.90
27759;DHT22;15148;48.972;12.794;2023-02-04T21:52:12;-2.90;99.90
27759;DHT22;15148;48.972;12.794;2023-02-04T21:57:15;-3.10;99.90
27759;DHT22;15148;48.972;12.794;2023-02-04T22:02:17;-3.10;99.90
27759;DHT22;15148;48.972;12.794;2023-02-04T22:07:19;-3.20;99.90
27759;DHT22;15148;48.972;12.794;2023-02-04T22:12:21;-3.30;99.90
27759;DHT22;15148;48.972;12.794;2023-02-04T22:17:23;-3.60;99.90
27759;DHT22;15148;48.972;12.794;2023-02-04T22:22:25;-3.50;99.90
27759;DHT22;15148;48.972;12.794;2023-02-04T22:27:27;-3.60;99.90
27759;DHT22;15148;48.972;12.794;2023-02-04T22:32:29;-3.60;99.90
27759;DHT22;15148;48.972;12.794;2023-02-04T22:37:31;-3.50;99.90
27759;DHT22;15148;48.972;12.794;2023-02-04T22:42:33;-3.50;99.90
27759;DHT22;15148;48.972;12.794;2023-02-04T22:47:35;-3.50;99.90
27759;DHT22;15148;48.972;12.794;2023-02-04T22:52:37;-3.80;99.90
27759;DHT22;15148;48.972;12.794;2023-02-04T22:57:38;-3.80;99.90
27759;DHT22;15148;48.972;12.794;2023-02-04T23:02:40;-3.80;99.90
27759;DHT22;15148;48.972;12.794;2023-02-04T23:07:42;-3.90;99.90
27759;DHT22;15148;48.972;12.794;2023-02-04T23:12:44;-3.90;99.90
27759;DHT22;15148;48.972;12.794;2023-02-04T23:17:46;-3.90;99.90
27759;DHT22;15148;48.972;12.794;2023-02-04T23:22:48;-4.00;99.90
27759;DHT22;15148;48.972;12.794;2023-02-04T23:27:50;-3.90;99.90
27759;DHT22;15148;48.972;12.794;2023-02-04T23:32:51;-3.90;99.90
27759;DHT22;15148;48.972;12.794;2023-02-04T23:37:53;-3.90;99.90
27759;DHT22;15148;48.972;12.794;2023-02-04T23:42:55;-4.10;99.90
27759;DHT22;15148;48.972;12.794;2023-02-04T23:47:57;-4.20;99.90
27759;DHT22;15148;48.972;12.794;2023-02-04T23:52:59;-4.20;99.90
27759;DHT22;15148;48.972;12.794;2023-02-04T23:58:01;-4.10;99.90
